createdAt,value
2023-03-21T00:00:44.799Z,69.43
2023-03-21T00:03:11.850Z,69.13
2023-03-21T00:05:43.606Z,69.38
2023-03-21T00:08:10.614Z,69.77
2023-03-21T00:10:42.754Z,70.11
2023-03-21T00:13:12.345Z,70.26
2023-03-21T00:15:48.401Z,69.79
2023-03-21T00:18:22.127Z,69.39
2023-03-21T00:21:35.617Z,69.13
2023-03-21T00:23:50.838Z,68.96
2023-03-21T00:26:17.639Z,69.19
2023-03-21T00:28:44.544Z,69.17
2023-03-21T00:31:12.934Z,69.34
2023-03-21T00:33:39.859Z,69.34
2023-03-21T00:36:09.255Z,69.28
2023-03-21T00:38:37.333Z,69.97
2023-03-21T00:41:20.926Z,70.30
2023-03-21T00:43:51.301Z,70.03
2023-03-21T00:46:18.280Z,70.77
2023-03-21T00:48:45.189Z,70.77
2023-03-21T00:51:15.433Z,70.70
2023-03-21T00:53:43.072Z,70.59
2023-03-21T00:56:09.980Z,70.49
2023-03-21T00:58:36.949Z,70.72
2023-03-21T01:01:04.694Z,71.28
2023-03-21T01:03:33.350Z,70.73
2023-03-21T01:06:00.300Z,71.12
2023-03-21T01:08:33.225Z,70.86
2023-03-21T01:11:08.868Z,71.08
2023-03-21T01:13:38.429Z,70.85
2023-03-21T01:16:09.634Z,70.30
2023-03-21T01:18:38.390Z,70.70
2023-03-21T01:21:09.976Z,70.85
2023-03-21T01:23:37.731Z,70.59
2023-03-21T01:26:04.898Z,70.40
2023-03-21T01:28:32.160Z,70.51
2023-03-21T01:31:02.120Z,70.12
2023-03-21T01:33:30.664Z,70.46
2023-03-21T01:36:10.220Z,70.31
2023-03-21T01:38:41.102Z,70.38
2023-03-21T01:41:19.922Z,70.60
2023-03-21T01:43:48.678Z,70.28
2023-03-21T01:49:34.235Z,69.80
2023-03-21T01:52:36.466Z,69.91
2023-03-21T01:55:10.153Z,69.58
2023-03-21T01:58:02.343Z,69.38
2023-03-21T02:00:34.032Z,69.33
2023-03-21T02:03:29.542Z,68.77
2023-03-21T02:06:15.641Z,68.54
2023-03-21T02:08:46.587Z,68.41
2023-03-21T02:11:16.593Z,68.55
2023-03-21T02:13:44.056Z,68.20
2023-03-21T02:16:28.550Z,68.78
2023-03-21T02:19:00.309Z,67.93
2023-03-21T02:21:49.306Z,68.18
2023-03-21T02:25:08.443Z,68.29
2023-03-21T02:28:04.898Z,68.08
2023-03-21T02:30:50.913Z,68.09
2023-03-21T02:33:34.407Z,68.14
2023-03-21T02:36:14.446Z,67.74
2023-03-21T02:38:55.129Z,68.01
2023-03-21T02:41:29.848Z,67.37
2023-03-21T02:44:14.409Z,67.61
2023-03-21T02:47:03.194Z,67.70
2023-03-21T02:49:42.379Z,67.17
2023-03-21T02:52:22.875Z,66.88
2023-03-21T02:54:58.678Z,66.85
2023-03-21T02:57:42.094Z,67.35
2023-03-21T03:00:17.681Z,67.30
2023-03-21T03:02:48.850Z,67.11
2023-03-21T03:05:27.657Z,67.34
2023-03-21T03:08:59.562Z,67.52
2023-03-21T03:11:30.126Z,67.31
2023-03-21T03:14:35.874Z,67.62
2023-03-21T03:17:12.721Z,67.80
2023-03-21T03:20:16.211Z,67.23
2023-03-21T03:23:07.661Z,66.99
2023-03-21T03:25:53.451Z,66.76
2023-03-21T03:28:26.406Z,66.95
2023-03-21T03:31:08.001Z,66.80
2023-03-21T03:33:46.342Z,67.13
2023-03-21T03:36:33.236Z,67.19
2023-03-21T03:39:15.921Z,67.34
2023-03-21T03:42:09.991Z,67.03
2023-03-21T03:44:45.621Z,67.31
2023-03-21T03:47:57.218Z,67.67
2023-03-21T03:51:01.816Z,67.89
2023-03-21T03:53:47.878Z,67.57
2023-03-21T03:56:15.268Z,67.51
2023-03-21T03:58:45.731Z,67.09
2023-03-21T04:01:16.006Z,67.63
2023-03-21T04:03:51.055Z,67.56
2023-03-21T04:06:21.742Z,67.71
2023-03-21T04:08:50.643Z,67.54
2023-03-21T04:11:17.671Z,67.24
2023-03-21T04:13:49.055Z,67.24
2023-03-21T04:16:21.753Z,67.28
2023-03-21T04:18:48.960Z,67.14
2023-03-21T04:21:18.827Z,67.02
2023-03-21T04:23:45.951Z,66.97
2023-03-21T04:26:12.891Z,66.67
2023-03-21T04:28:48.860Z,66.34
2023-03-21T04:31:34.786Z,66.12
2023-03-21T04:34:10.112Z,65.47
2023-03-21T04:36:39.923Z,65.43
2023-03-21T04:39:09.195Z,65.33
2023-03-21T04:41:36.085Z,65.65
2023-03-21T04:44:04.596Z,65.89
2023-03-21T04:46:31.533Z,66.11
2023-03-21T04:48:58.404Z,65.44
2023-03-21T04:51:25.451Z,65.47
2023-03-21T04:53:57.561Z,64.81
2023-03-21T04:56:29.297Z,65.13
2023-03-21T04:58:56.848Z,64.94
2023-03-21T05:01:23.843Z,65.12
2023-03-21T05:03:50.928Z,64.99
2023-03-21T05:06:20.353Z,64.86
2023-03-21T05:09:00.315Z,65.49
2023-03-21T05:11:41.301Z,65.72
2023-03-21T05:14:14.271Z,65.69
2023-03-21T05:16:44.244Z,65.55
2023-03-21T05:19:11.899Z,65.73
2023-03-21T05:21:41.687Z,65.26
2023-03-21T05:24:22.762Z,65.61
2023-03-21T05:26:55.662Z,65.21
2023-03-21T05:29:26.955Z,65.02
2023-03-21T05:32:05.926Z,65.31
2023-03-21T05:34:44.691Z,64.89
2023-03-21T05:37:22.310Z,64.63
2023-03-21T05:39:51.929Z,64.18
2023-03-21T05:42:39.424Z,64.23
2023-03-21T05:45:17.267Z,64.98
2023-03-21T05:47:44.303Z,64.97
2023-03-21T05:50:16.084Z,65.35
2023-03-21T05:52:56.004Z,64.91
2023-03-21T05:55:23.448Z,65.31
2023-03-21T05:57:50.423Z,64.72
2023-03-21T06:00:22.796Z,64.78
2023-03-21T06:03:05.273Z,64.56
2023-03-21T06:05:47.480Z,64.09
2023-03-21T06:08:21.582Z,64.36
2023-03-21T06:10:48.753Z,63.57
2023-03-21T06:13:15.665Z,63.77
2023-03-21T06:15:42.827Z,63.72
2023-03-21T06:18:15.528Z,63.40
2023-03-21T06:20:53.143Z,63.75
2023-03-21T06:23:20.104Z,63.46
2023-03-21T06:25:48.733Z,64.71
2023-03-21T06:28:15.753Z,63.59
2023-03-21T06:30:42.733Z,63.82
2023-03-21T06:33:21.976Z,64.15
2023-03-21T06:35:56.948Z,63.67
2023-03-21T06:38:25.677Z,63.80
2023-03-21T06:40:53.458Z,63.54
2023-03-21T06:43:23.131Z,62.72
2023-03-21T06:45:50.664Z,62.15
2023-03-21T06:48:20.744Z,62.69
2023-03-21T06:50:50.266Z,62.72
2023-03-21T06:53:19.604Z,62.26
2023-03-21T06:56:05.572Z,62.90
2023-03-21T06:58:34.059Z,62.70
2023-03-21T07:01:02.626Z,62.98
2023-03-21T07:03:35.611Z,62.77
2023-03-21T07:06:07.894Z,62.62
2023-03-21T07:08:34.829Z,62.30
2023-03-21T07:11:02.358Z,62.36
2023-03-21T07:13:29.315Z,61.83
2023-03-21T07:16:06.415Z,61.34
2023-03-21T07:18:36.873Z,61.35
2023-03-21T07:21:04.324Z,61.71
2023-03-21T07:23:31.294Z,62.16
2023-03-21T07:25:58.299Z,61.18
2023-03-21T07:28:25.681Z,61.25
2023-03-21T07:31:04.440Z,61.67
2023-03-21T07:33:34.592Z,59.88
2023-03-21T07:36:02.670Z,59.47
2023-03-21T07:38:30.246Z,59.25
2023-03-21T07:40:59.985Z,59.37
2023-03-21T07:43:30.305Z,58.76
2023-03-21T07:45:59.562Z,58.71
2023-03-21T07:48:29.855Z,58.02
2023-03-21T07:50:59.900Z,57.26
2023-03-21T07:53:27.780Z,56.41
2023-03-21T07:55:56.093Z,56.73
2023-03-21T07:58:28.760Z,56.42
2023-03-21T08:00:58.634Z,56.96
2023-03-21T08:03:29.605Z,57.10
2023-03-21T08:05:56.751Z,56.26
2023-03-21T08:08:25.535Z,56.58
2023-03-21T08:10:55.714Z,55.74
2023-03-21T08:13:22.760Z,56.14
2023-03-21T08:15:49.844Z,56.52
2023-03-21T08:18:17.075Z,56.31
2023-03-21T08:20:43.991Z,56.34
2023-03-21T08:23:10.801Z,55.95
2023-03-21T08:25:37.834Z,56.16
2023-03-21T08:28:05.131Z,55.99
2023-03-21T08:30:32.187Z,55.61
2023-03-21T08:33:01.681Z,56.08
2023-03-21T08:35:29.875Z,55.86
2023-03-21T08:37:56.808Z,55.91
2023-03-21T08:40:23.614Z,56.90
2023-03-21T08:42:50.561Z,57.00
2023-03-21T08:45:17.889Z,56.73
2023-03-21T08:47:44.989Z,56.64
2023-03-21T08:50:22.590Z,57.14
2023-03-21T08:52:52.026Z,56.66
2023-03-21T08:55:22.865Z,56.30
2023-03-21T08:57:51.847Z,56.44
2023-03-21T09:00:22.645Z,56.96
2023-03-21T09:02:51.634Z,56.63
2023-03-21T09:05:18.793Z,57.14
2023-03-21T09:07:46.281Z,56.06
2023-03-21T09:10:22.768Z,56.31
2023-03-21T09:12:53.414Z,56.79
2023-03-21T09:15:22.186Z,56.68
2023-03-21T09:17:49.823Z,56.45
2023-03-21T09:20:21.509Z,56.22
2023-03-21T09:22:50.599Z,55.95
2023-03-21T09:25:18.549Z,56.00
2023-03-21T09:27:50.751Z,56.37
2023-03-21T09:30:26.007Z,55.78
2023-03-21T09:32:55.494Z,55.85
2023-03-21T09:35:22.593Z,56.59
2023-03-21T09:37:49.639Z,56.53
2023-03-21T09:40:53.799Z,56.54
2023-03-21T09:43:45.538Z,55.76
2023-03-21T09:46:24.698Z,55.34
2023-03-21T09:48:59.890Z,55.75
2023-03-21T09:51:33.488Z,55.79
2023-03-21T09:54:07.060Z,54.82
2023-03-21T09:56:39.068Z,54.72
2023-03-21T09:59:10.174Z,54.11
2023-03-21T10:01:38.759Z,54.39
2023-03-21T10:04:09.112Z,54.32
2023-03-21T10:06:40.812Z,54.13
2023-03-21T10:09:12.145Z,53.57
2023-03-21T10:11:44.848Z,52.16
2023-03-21T10:14:27.049Z,52.70
2023-03-21T10:17:17.849Z,53.63
2023-03-21T10:19:46.864Z,52.18
2023-03-21T10:22:13.762Z,51.33
2023-03-21T10:24:41.241Z,52.15
2023-03-21T10:27:10.182Z,52.54
2023-03-21T10:29:45.884Z,52.65
2023-03-21T10:32:17.506Z,51.65
2023-03-21T10:34:58.909Z,52.05
2023-03-21T10:37:26.884Z,51.86
2023-03-21T10:39:55.732Z,52.32
2023-03-21T10:42:26.418Z,51.53
2023-03-21T10:44:58.679Z,51.75
2023-03-21T10:47:32.471Z,51.65
2023-03-21T10:50:13.679Z,51.29
2023-03-21T10:52:57.353Z,52.36
2023-03-21T10:55:29.310Z,51.91
2023-03-21T10:58:07.193Z,51.70
2023-03-21T11:00:42.622Z,50.86
2023-03-21T11:03:40.290Z,49.84
2023-03-21T11:06:17.047Z,50.71
2023-03-21T11:08:49.102Z,50.72
2023-03-21T11:11:39.580Z,50.59
2023-03-21T11:14:24.061Z,49.97
2023-03-21T11:16:51.056Z,49.80
2023-03-21T11:19:20.698Z,49.78
2023-03-21T11:21:47.743Z,49.55
2023-03-21T11:24:18.405Z,48.83
2023-03-21T11:26:49.116Z,48.61
2023-03-21T11:29:30.389Z,49.00
2023-03-21T11:32:23.477Z,49.06
2023-03-21T11:34:57.111Z,48.09
2023-03-21T11:37:24.015Z,48.45
2023-03-21T11:39:57.213Z,49.31
2023-03-21T11:42:31.183Z,49.02
2023-03-21T11:45:10.418Z,48.84
2023-03-21T11:47:37.978Z,49.01
2023-03-21T11:50:27.743Z,47.97
2023-03-21T11:53:03.934Z,47.16
2023-03-21T11:56:15.252Z,47.23
2023-03-21T11:58:47.380Z,46.96
2023-03-21T12:01:45.945Z,47.75
2023-03-21T12:04:45.269Z,47.75
2023-03-21T12:07:42.415Z,47.54
2023-03-21T12:10:51.363Z,47.56
2023-03-21T12:13:48.126Z,47.20
2023-03-21T12:16:42.621Z,47.05
2023-03-21T12:19:22.451Z,47.42
2023-03-21T12:21:49.422Z,48.38
2023-03-21T12:24:23.505Z,48.30
2023-03-21T12:27:35.758Z,47.84
2023-03-21T12:30:02.630Z,48.23
2023-03-21T12:32:35.700Z,47.76
2023-03-21T12:35:20.216Z,48.19
2023-03-21T12:37:52.034Z,47.87
2023-03-21T12:40:26.226Z,48.03
2023-03-21T12:43:22.383Z,48.28
2023-03-21T12:45:57.666Z,48.90
2023-03-21T12:48:55.607Z,48.93
2023-03-21T12:51:43.593Z,48.80
2023-03-21T12:54:28.421Z,49.28
2023-03-21T12:57:21.385Z,50.04
2023-03-21T13:00:26.501Z,48.63
2023-03-21T13:02:59.796Z,49.21
2023-03-21T13:05:29.409Z,49.17
2023-03-21T13:08:04.959Z,49.14
2023-03-21T13:10:34.088Z,49.25
2023-03-21T13:13:19.499Z,49.75
2023-03-21T13:16:16.473Z,49.67
2023-03-21T13:18:59.173Z,49.46
2023-03-21T13:21:35.142Z,49.80
2023-03-21T13:24:05.524Z,50.27
2023-03-21T13:26:43.534Z,50.45
2023-03-21T13:29:33.227Z,51.04
2023-03-21T13:32:12.131Z,50.77
2023-03-21T13:34:39.850Z,51.24
2023-03-21T13:37:15.980Z,51.77
2023-03-21T13:39:46.081Z,52.14
2023-03-21T13:42:29.385Z,52.21
2023-03-21T13:45:00.391Z,52.08
2023-03-21T13:47:54.652Z,52.59
2023-03-21T13:50:23.503Z,52.84
2023-03-21T13:53:13.781Z,53.04
2023-03-21T13:55:45.641Z,52.29
2023-03-21T13:58:35.566Z,52.53
2023-03-21T14:01:16.740Z,52.45
2023-03-21T14:03:45.733Z,52.53
2023-03-21T14:06:15.918Z,53.08
2023-03-21T14:08:46.299Z,52.80
2023-03-21T14:11:22.500Z,53.45
2023-03-21T14:13:55.544Z,53.16
2023-03-21T14:16:26.676Z,53.97
2023-03-21T14:18:59.568Z,53.84
2023-03-21T14:21:32.541Z,53.75
2023-03-21T14:24:09.295Z,53.99
2023-03-21T14:26:43.452Z,53.86
2023-03-21T14:29:26.248Z,54.55
2023-03-21T14:31:57.863Z,54.42
2023-03-21T14:34:28.867Z,54.39
2023-03-21T14:36:59.205Z,54.23
2023-03-21T14:39:31.713Z,55.05
2023-03-21T14:42:05.529Z,55.66
2023-03-21T14:44:54.418Z,54.52
2023-03-21T14:47:33.092Z,55.03
2023-03-21T14:50:00.412Z,55.51
2023-03-21T14:52:32.743Z,55.44
2023-03-21T14:55:01.818Z,56.01
2023-03-21T14:57:32.339Z,56.64
2023-03-21T15:00:02.712Z,57.57
2023-03-21T15:02:40.247Z,57.25
2023-03-21T15:05:16.544Z,57.60
2023-03-21T15:07:47.042Z,57.15
2023-03-21T15:10:16.658Z,57.93
2023-03-21T15:12:58.822Z,58.64
2023-03-21T15:15:35.433Z,58.28
2023-03-21T15:18:13.873Z,58.59
2023-03-21T15:20:41.304Z,58.94
2023-03-21T15:23:28.854Z,58.91
2023-03-21T15:25:58.747Z,59.16
2023-03-21T15:28:26.414Z,59.25
2023-03-21T15:30:54.074Z,59.85
2023-03-21T15:33:25.095Z,60.18
2023-03-21T15:35:55.291Z,59.83
2023-03-21T15:38:33.421Z,60.10
2023-03-21T15:41:21.219Z,60.63
2023-03-21T15:44:13.329Z,60.47
2023-03-21T15:47:00.529Z,60.74
2023-03-21T15:49:33.760Z,60.68
2023-03-21T15:52:15.787Z,61.02
2023-03-21T15:54:52.732Z,61.20
2023-03-21T15:57:46.145Z,61.00
2023-03-21T16:01:08.819Z,61.63
2023-03-21T16:03:54.967Z,61.82
2023-03-21T16:06:32.553Z,61.54
2023-03-21T16:09:20.639Z,62.07
2023-03-21T16:11:58.933Z,61.97
2023-03-21T16:14:35.008Z,61.66
2023-03-21T16:17:13.562Z,62.69
2023-03-21T16:19:41.008Z,63.24
2023-03-21T16:22:11.155Z,62.55
2023-03-21T16:24:38.288Z,62.70
2023-03-21T16:27:14.387Z,63.48
2023-03-21T16:29:41.513Z,62.67
2023-03-21T16:32:18.937Z,62.83
2023-03-21T16:34:50.037Z,62.66
2023-03-21T16:37:17.010Z,63.18
2023-03-21T16:39:43.894Z,63.17
2023-03-21T16:42:12.731Z,63.70
2023-03-21T16:44:40.087Z,63.50
2023-03-21T16:47:19.719Z,63.60
2023-03-21T16:49:47.107Z,63.28
2023-03-21T16:52:14.980Z,63.16
2023-03-21T16:54:42.938Z,63.35
2023-03-21T16:57:24.558Z,64.52
2023-03-21T16:59:51.538Z,63.78
2023-03-21T17:02:18.400Z,64.05
2023-03-21T17:04:45.359Z,64.33
2023-03-21T17:07:16.088Z,64.05
2023-03-21T17:09:43.517Z,64.27
2023-03-21T17:12:14.888Z,63.70
2023-03-21T17:14:43.099Z,64.17
2023-03-21T17:17:15.219Z,64.08
2023-03-21T17:19:42.480Z,63.90
2023-03-21T17:22:10.887Z,64.43
2023-03-21T17:24:39.127Z,64.56
2023-03-21T17:27:11.733Z,64.22
2023-03-21T17:29:41.327Z,64.63
2023-03-21T17:32:08.368Z,64.36
2023-03-21T17:34:35.435Z,63.99
2023-03-21T17:37:03.143Z,64.55
2023-03-21T17:39:30.341Z,64.71
2023-03-21T17:42:00.191Z,64.68
2023-03-21T17:44:28.790Z,64.50
2023-03-21T17:46:55.830Z,65.34
2023-03-21T17:49:23.054Z,64.52
2023-03-21T17:51:49.981Z,64.49
2023-03-21T17:54:16.890Z,65.69
2023-03-21T17:56:44.325Z,65.23
2023-03-21T17:59:13.932Z,65.90
2023-03-21T18:01:41.148Z,65.28
2023-03-21T18:04:08.217Z,66.16
2023-03-21T18:06:35.461Z,65.87
2023-03-21T18:09:03.998Z,65.88
2023-03-21T18:11:30.850Z,65.35
2023-03-21T18:14:13.831Z,65.55
2023-03-21T18:16:42.794Z,66.13
2023-03-21T18:19:11.400Z,66.41
2023-03-21T18:21:38.773Z,66.30
2023-03-21T18:24:05.878Z,66.14
2023-03-21T18:26:32.924Z,65.82
2023-03-21T18:31:57.682Z,65.84
2023-03-21T18:34:31.673Z,66.66
2023-03-21T18:36:58.642Z,66.78
2023-03-21T18:39:25.957Z,66.93
2023-03-21T18:41:57.063Z,66.94
2023-03-21T18:44:25.054Z,66.84
2023-03-21T18:46:52.301Z,66.93
2023-03-21T18:52:07.216Z,67.18
2023-03-21T18:54:34.375Z,67.04
2023-03-21T18:59:51.671Z,67.33
2023-03-21T19:02:18.908Z,66.90
2023-03-21T19:04:46.679Z,67.37
2023-03-21T19:07:13.849Z,67.31
2023-03-21T19:10:05.304Z,67.48
2023-03-21T19:12:28.497Z,66.98
2023-03-21T19:14:55.630Z,68.01
2023-03-21T19:18:26.126Z,67.76
2023-03-21T19:20:11.947Z,67.47
2023-03-21T19:22:38.936Z,66.97
2023-03-21T19:25:07.246Z,67.61
2023-03-21T19:27:35.311Z,67.61
2023-03-21T19:30:13.864Z,67.48
2023-03-21T19:32:41.637Z,67.20
2023-03-21T19:35:08.740Z,67.38
2023-03-21T19:37:35.691Z,67.10
2023-03-21T19:40:04.579Z,67.69
2023-03-21T19:42:31.900Z,67.49
2023-03-21T19:44:58.741Z,67.23
2023-03-21T19:47:25.785Z,66.32
2023-03-21T19:52:41.136Z,67.20
2023-03-21T19:55:08.602Z,66.74
2023-03-21T19:57:35.763Z,67.16
2023-03-21T20:00:03.389Z,67.08
2023-03-21T20:02:36.763Z,67.52
2023-03-21T20:05:06.562Z,67.18
2023-03-21T20:07:33.476Z,66.89
2023-03-21T20:10:00.803Z,67.07
2023-03-21T20:12:28.110Z,67.81
2023-03-21T20:15:06.983Z,67.26
2023-03-21T20:17:39.054Z,67.28
2023-03-21T20:20:07.030Z,67.55
2023-03-21T20:23:03.291Z,67.85
2023-03-21T20:25:22.316Z,68.18
2023-03-21T20:28:09.376Z,67.77
2023-03-21T20:30:36.721Z,68.45
2023-03-21T20:33:04.058Z,68.30
2023-03-21T20:36:13.863Z,68.13
2023-03-21T20:38:18.315Z,67.97
2023-03-21T20:40:48.527Z,68.32
2023-03-21T20:44:04.959Z,68.25
2023-03-21T20:46:10.620Z,68.10
2023-03-21T20:48:38.753Z,68.70
2023-03-21T20:52:09.963Z,69.06
2023-03-21T20:53:58.212Z,68.70
2023-03-21T20:56:25.097Z,68.43
2023-03-21T20:59:04.971Z,68.62
2023-03-21T21:01:39.264Z,67.92
2023-03-21T21:04:06.277Z,68.24
2023-03-21T21:06:36.290Z,68.47
2023-03-21T21:09:03.226Z,68.18
2023-03-21T21:14:17.408Z,68.72
2023-03-21T21:16:44.888Z,68.20
2023-03-21T21:19:11.917Z,68.06
2023-03-21T21:21:41.022Z,68.08
2023-03-21T21:24:14.572Z,67.70
2023-03-21T21:26:42.030Z,67.96
2023-03-21T21:29:09.045Z,68.42
2023-03-21T21:31:36.008Z,68.10
2023-03-21T21:34:02.904Z,68.08
2023-03-21T21:36:29.854Z,67.73
2023-03-21T21:38:56.651Z,67.85
2023-03-21T21:41:24.096Z,67.52
2023-03-21T21:43:51.093Z,67.89
2023-03-21T21:46:18.273Z,67.73
2023-03-21T21:48:45.178Z,67.70
2023-03-21T21:51:15.265Z,67.92
2023-03-21T21:53:42.111Z,67.70
2023-03-21T21:56:09.558Z,66.99
2023-03-21T21:58:36.435Z,67.32
2023-03-21T22:01:03.372Z,67.14
2023-03-21T22:03:30.318Z,67.53
2023-03-21T22:06:02.425Z,67.28
2023-03-21T22:08:29.449Z,66.45
2023-03-21T22:10:56.480Z,66.09
2023-03-21T22:13:23.532Z,66.24
2023-03-21T22:15:50.644Z,65.36
2023-03-21T22:18:17.727Z,65.31
2023-03-21T22:20:45.544Z,65.41
2023-03-21T22:23:12.659Z,65.73
2023-03-21T22:25:40.451Z,65.04
2023-03-21T22:28:07.762Z,64.93
2023-03-21T22:30:34.692Z,65.00
2023-03-21T22:33:09.195Z,64.74
2023-03-21T22:35:37.116Z,64.84
2023-03-21T22:38:04.079Z,64.58
2023-03-21T22:40:31.091Z,64.38
2023-03-21T22:42:58.045Z,64.45
2023-03-21T22:45:25.118Z,63.98
2023-03-21T22:47:52.134Z,64.15
2023-03-21T22:50:19.333Z,64.25
2023-03-21T22:52:46.270Z,63.97
2023-03-21T22:55:13.188Z,63.82
2023-03-21T22:57:40.120Z,63.60
2023-03-21T23:00:08.335Z,63.54
2023-03-21T23:02:35.176Z,63.53
2023-03-21T23:05:02.216Z,63.25
2023-03-21T23:07:29.104Z,63.12
2023-03-21T23:09:56.752Z,63.20
2023-03-21T23:12:23.754Z,63.00
2023-03-21T23:14:50.828Z,62.91
2023-03-21T23:17:17.703Z,62.80
2023-03-21T23:19:44.860Z,62.61
2023-03-21T23:22:11.764Z,62.70
2023-03-21T23:24:38.707Z,63.10
2023-03-21T23:27:05.798Z,62.72
2023-03-21T23:29:32.766Z,62.51
2023-03-21T23:31:59.654Z,62.86
2023-03-21T23:34:27.233Z,62.79
2023-03-21T23:36:54.154Z,62.78
2023-03-21T23:39:21.044Z,63.09
2023-03-21T23:41:47.943Z,62.96
2023-03-21T23:44:14.858Z,62.89
2023-03-21T23:46:41.755Z,63.13
2023-03-21T23:49:09.942Z,63.20
2023-03-21T23:51:37.148Z,62.25
2023-03-21T23:54:04.072Z,62.61
2023-03-21T23:56:30.972Z,62.86
2023-03-21T23:58:58.305Z,63.13
